Vigilant — WDE2719 — position and weather

sailwx.info

Track history (hours):
 
Tides and Currents Weather Stations Pressure Air Temp Water Temp Dewpoint Dewpoint Depression Visibility Wind Speed Wind Dir Waves Ship Positions

Vigilant

Owner: Crowley Marine Services, Seattle, WA. More information available from US FCC via Universal Licensing System and Coast Guard Vessel Documentation Center.

Last reported at 2018-Jul-22 18:00 UTC. Time now 2018-Jul-22 18:22 UTC.
Position N 47°35' W 122°21'.

Length 31 m; draft 5.7 m.

Type: Tug. MMSI: 367328780.

Date/timePositionNaut miles runAvg speedWind from/ knotsBaromVisibWave heightAir tempDewpointWater temp
2018-Jul-22 18:00N 47°35' W 122°21'0 0.0
2018-Jul-22 17:30N 47°35' W 122°21'0 0.0
2018-Jul-22 17:00N 47°35' W 122°21'0 0.0
2018-Jul-22 16:30N 47°35' W 122°21'0 0.0
2018-Jul-22 16:00N 47°35' W 122°21'0 0.0
2018-Jul-22 15:00N 47°35' W 122°21'0 0.0
2018-Jul-22 14:30N 47°35' W 122°21'0 0.0
2018-Jul-22 14:00N 47°35' W 122°21'0 0.0
2018-Jul-22 13:30N 47°35' W 122°21'0 0.0
2018-Jul-22 13:00N 47°35' W 122°21'0 0.0
2018-Jul-22 12:30N 47°35' W 122°21'0 0.0
2018-Jul-22 12:00N 47°35' W 122°21'0 0.0
2018-Jul-22 11:30N 47°35' W 122°21'0 0.0
2018-Jul-22 11:00N 47°35' W 122°21'0 0.0
2018-Jul-22 10:30N 47°35' W 122°21'0 0.0
2018-Jul-22 10:00N 47°35' W 122°21'0 0.0
2018-Jul-22 09:30N 47°35' W 122°21'0 0.0
2018-Jul-22 09:00N 47°35' W 122°21'0 0.0
2018-Jul-22 08:30N 47°35' W 122°21'0 0.0
2018-Jul-22 08:00N 47°35' W 122°21'0 0.0
2018-Jul-22 07:30N 47°35' W 122°21'0 0.0
2018-Jul-22 07:01N 47°35' W 122°21'0 0.0
2018-Jul-22 06:30N 47°35' W 122°21'0 0.0
2018-Jul-22 06:00N 47°35' W 122°21'0 0.0
2018-Jul-22 05:30N 47°35' W 122°21'0 0.0
2018-Jul-22 05:00N 47°35' W 122°21'0 0.0
2018-Jul-22 04:30N 47°35' W 122°21'0 0.0
2018-Jul-22 04:00N 47°35' W 122°21'0 0.0
2018-Jul-22 03:30N 47°35' W 122°21'0 0.0
2018-Jul-22 03:00N 47°35' W 122°21'0 0.0
2018-Jul-22 02:28N 47°35' W 122°21'0 0.5
2018-Jul-22 02:00N 47°35' W 122°21'0 0.3
2018-Jul-22 01:30N 47°35' W 122°21'1 2.5
2018-Jul-22 01:00N 47°36' W 122°22'0 0.8
2018-Jul-22 00:30N 47°37' W 122°22'1 2.5
2018-Jul-22 00:00N 47°36' W 122°21'0 0.5
2018-Jul-21 23:30N 47°35' W 122°21'0 0.0
2018-Jul-21 23:00N 47°35' W 122°21'0 0.0
2018-Jul-21 22:31N 47°35' W 122°21'0 0.0
2018-Jul-21 22:00N 47°35' W 122°21'0 0.0
2018-Jul-21 21:30N 47°35' W 122°21'0 0.0
2018-Jul-21 20:55N 47°35' W 122°21'0 0.0
2018-Jul-21 20:28N 47°35' W 122°21'0 0.0
2018-Jul-21 20:00N 47°35' W 122°21'0 0.1
2018-Jul-21 19:30N 47°35' W 122°21'5 9.6
2018-Jul-21 19:00N 47°38' W 122°27'5 9.2
2018-Jul-21 18:30N 47°43' W 122°28'5 9.9
2018-Jul-21 18:00N 47°48' W 122°27'510.2
2018-Jul-21 17:30N 47°53' W 122°29'34 8.0
2018-Jul-21 13:16N 48°23' W 122°54'414.2
2018-Jul-21 12:59N 48°24' W 122°48'713.8
2018-Jul-21 12:28N 48°31' W 122°43'510.5
2018-Jul-21 12:00N 48°31' W 122°36'1 2.5
2018-Jul-21 11:30N 48°31' W 122°34'0 0.3
2018-Jul-21 11:00N 48°31' W 122°34'1 1.3
2018-Jul-21 10:30N 48°31' W 122°35'1 2.4
2018-Jul-21 10:00N 48°31' W 122°37'0 0.0
2018-Jul-21 09:29N 48°31' W 122°37'0 0.0
2018-Jul-21 09:00N 48°31' W 122°37'0 0.0
2018-Jul-21 08:30N 48°31' W 122°37'0 0.0
2018-Jul-21 08:00N 48°31' W 122°37'0 0.0
2018-Jul-21 07:29N 48°31' W 122°37'0 0.0
2018-Jul-21 07:00N 48°31' W 122°37'0 0.0
2018-Jul-21 06:30N 48°31' W 122°37'0 0.0
2018-Jul-21 06:00N 48°31' W 122°37'0 0.0
2018-Jul-21 05:30N 48°31' W 122°37'0 0.0
2018-Jul-21 05:00N 48°31' W 122°37'0 0.0
2018-Jul-21 04:28N 48°31' W 122°37'0 0.0
2018-Jul-21 04:00N 48°31' W 122°37'0 0.0
2018-Jul-21 03:28N 48°31' W 122°37'0 0.0
2018-Jul-21 03:00N 48°31' W 122°37'0 0.0
2018-Jul-21 02:30N 48°31' W 122°37'0 0.0
2018-Jul-21 02:00N 48°31' W 122°37'0 0.0
2018-Jul-21 01:30N 48°31' W 122°37'0 0.0
2018-Jul-21 01:00N 48°31' W 122°37'0 0.0
2018-Jul-21 00:30N 48°31' W 122°37'1 2.0
2018-Jul-21 00:00N 48°31' W 122°38'15 1.3
2018-Jul-20 12:41N 48°22' W 122°56'2 7.8
2018-Jul-20 12:28N 48°23' W 122°53'4 8.5
2018-Jul-20 11:59N 48°25' W 122°48'611.1
2018-Jul-20 11:28N 48°30' W 122°44'510.5
2018-Jul-20 11:00N 48°31' W 122°37'0 0.0
2018-Jul-20 10:29N 48°31' W 122°37'0 0.0
2018-Jul-20 10:00N 48°31' W 122°37'0 0.0
2018-Jul-20 09:30N 48°31' W 122°37'0 0.0
2018-Jul-20 09:00N 48°31' W 122°37'0 0.0
2018-Jul-20 08:30N 48°31' W 122°37'0 0.0
2018-Jul-20 08:00N 48°31' W 122°37'0 0.0
2018-Jul-20 07:30N 48°31' W 122°37'2 3.1
2018-Jul-20 07:00N 48°31' W 122°35'0 0.3
2018-Jul-20 06:29N 48°31' W 122°35'1 2.9
2018-Jul-20 06:00N 48°31' W 122°37'0 0.0
2018-Jul-20 05:30N 48°31' W 122°37'0 0.0
2018-Jul-20 05:00N 48°31' W 122°37'1 2.3
2018-Jul-20 04:30N 48°32' W 122°35'1 2.4
2018-Jul-20 04:00N 48°31' W 122°34'0 0.1
2018-Jul-20 03:30N 48°31' W 122°34'0 0.1
2018-Jul-20 03:00N 48°31' W 122°34'1 1.4
2018-Jul-20 02:30N 48°31' W 122°34'3 5.3
2018-Jul-20 01:55N 48°34' W 122°35'1 1.6
2018-Jul-20 01:28N 48°34' W 122°35'2 4.6
2018-Jul-20 01:00N 48°32' W 122°35'1 2.4
2018-Jul-20 00:30N 48°31' W 122°37'0 0.0
2018-Jul-20 00:00N 48°31' W 122°37'0 0.0
2018-Jul-19 23:30N 48°31' W 122°37'0 0.0
2018-Jul-19 23:00N 48°31' W 122°37'0 0.0
2018-Jul-19 22:30N 48°31' W 122°37'0 0.0
2018-Jul-19 22:00N 48°31' W 122°37'0 0.0
2018-Jul-19 21:30N 48°31' W 122°37'0 0.0
2018-Jul-19 21:00N 48°31' W 122°37'0 0.0
2018-Jul-19 20:30N 48°31' W 122°37'0 0.0
2018-Jul-19 20:00N 48°31' W 122°37'0 0.0
2018-Jul-19 19:30N 48°31' W 122°37'0 0.0
2018-Jul-19 19:00N 48°31' W 122°37'0 0.0
2018-Jul-19 18:30N 48°31' W 122°37'0 0.0
2018-Jul-19 18:00N 48°31' W 122°37'0 0.0
2018-Jul-19 17:30N 48°31' W 122°37'0 0.0
2018-Jul-19 17:00N 48°31' W 122°37'0 0.0
2018-Jul-19 16:30N 48°31' W 122°37'0 0.0
2018-Jul-19 16:00N 48°31' W 122°37'0 0.0
2018-Jul-19 15:30N 48°31' W 122°37'0 0.0
2018-Jul-19 15:00N 48°31' W 122°37'0 0.0
2018-Jul-19 14:00N 48°31' W 122°37'0 0.0
2018-Jul-19 13:30N 48°31' W 122°37'0 0.0
2018-Jul-19 13:00N 48°31' W 122°37'0 0.0
2018-Jul-19 12:30N 48°31' W 122°37'0 0.0
2018-Jul-19 12:00N 48°31' W 122°37'0 0.0
2018-Jul-19 11:30N 48°31' W 122°37'0 0.0
2018-Jul-19 11:00N 48°31' W 122°37'0 0.0
2018-Jul-19 10:30N 48°31' W 122°37'0 0.0
2018-Jul-19 10:00N 48°31' W 122°37'0 0.0
2018-Jul-19 09:30N 48°31' W 122°37'0 0.0
2018-Jul-19 09:00N 48°31' W 122°37'0 0.0
2018-Jul-19 08:30N 48°31' W 122°37'0 0.0
2018-Jul-19 08:00N 48°31' W 122°37'0 0.0
2018-Jul-19 07:30N 48°31' W 122°37'0 0.0
2018-Jul-19 07:00N 48°31' W 122°37'0 0.0
2018-Jul-19 06:30N 48°31' W 122°37'0 0.0
2018-Jul-19 06:00N 48°31' W 122°37'0 0.0
2018-Jul-19 05:30N 48°31' W 122°37'0 0.0
2018-Jul-19 05:00N 48°31' W 122°37'0 0.0
2018-Jul-19 04:30N 48°31' W 122°37'0 0.0
2018-Jul-19 04:00N 48°31' W 122°37'0 0.1
2018-Jul-19 03:30N 48°31' W 122°37'25 8.5
2018-Jul-19 00:34N 48°23' W 123°13'1 8.7
2018-Jul-19 00:30N 48°24' W 123°12'4 8.6
2018-Jul-19 00:00N 48°28' W 123°12'712.8
2018-Jul-18 23:27N 48°35' W 123°14'612.3
2018-Jul-18 23:00N 48°40' W 123°15'21 0.6
2018-Jul-17 09:09N 48°43' W 122°43'1 8.0
2018-Jul-17 09:00N 48°42' W 122°43'4 7.3
2018-Jul-17 08:30N 48°38' W 122°44'3 6.8
2018-Jul-17 08:00N 48°35' W 122°45'4 7.2
2018-Jul-17 07:30N 48°31' W 122°45'14 4.6
2018-Jul-17 04:26N 48°20' W 122°58'511.6
2018-Jul-17 04:00N 48°23' W 122°52'5 8.5
2018-Jul-17 03:26N 48°26' W 122°46'3 8.0
2018-Jul-17 03:00N 48°29' W 122°45'4 7.0
2018-Jul-17 02:30N 48°33' W 122°45'3 5.6
2018-Jul-17 02:00N 48°36' W 122°45'3 6.6
2018-Jul-17 01:30N 48°39' W 122°44'3 1.0
2018-Jul-16 22:04N 48°42' W 122°43'110.6
2018-Jul-16 22:00N 48°42' W 122°42'5 9.5
2018-Jul-16 21:30N 48°38' W 122°38'5 9.8
2018-Jul-16 20:59N 48°33' W 122°34'3 5.4
2018-Jul-16 20:30N 48°31' W 122°37'0 0.0
2018-Jul-16 20:00N 48°31' W 122°37'0 0.0
2018-Jul-16 19:30N 48°31' W 122°37'0 0.0
2018-Jul-16 19:00N 48°31' W 122°37'0 0.0
2018-Jul-16 18:30N 48°31' W 122°37'0 0.0
2018-Jul-16 18:00N 48°31' W 122°37'0 0.0
2018-Jul-16 17:30N 48°31' W 122°37'0 0.0
2018-Jul-16 17:00N 48°31' W 122°37'0 0.0
2018-Jul-16 16:30N 48°31' W 122°37'0 0.0
2018-Jul-16 16:00N 48°31' W 122°37'0 0.0
2018-Jul-16 15:30N 48°31' W 122°37'0 0.0
2018-Jul-16 15:00N 48°31' W 122°37'0 0.0
2018-Jul-16 14:30N 48°31' W 122°37'0 0.0
2018-Jul-16 13:59N 48°31' W 122°37'0 0.0
2018-Jul-16 13:30N 48°31' W 122°37'0 0.1
2018-Jul-16 13:00N 48°31' W 122°37'0 0.0
2018-Jul-16 12:30N 48°31' W 122°37'0 0.1
2018-Jul-16 12:00N 48°31' W 122°37'0 0.0
2018-Jul-16 11:30N 48°31' W 122°37'1 2.1
2018-Jul-16 11:00N 48°31' W 122°38'3 5.2
2018-Jul-16 10:31N 48°31' W 122°35'0 0.3
2018-Jul-16 10:00N 48°31' W 122°35'0 0.5
2018-Jul-16 09:30N 48°31' W 122°35'1 2.8
2018-Jul-16 09:00N 48°31' W 122°37'0 0.0
2018-Jul-16 08:30N 48°31' W 122°37'0 0.0
2018-Jul-16 08:00N 48°31' W 122°37'0 0.0
2018-Jul-16 07:30N 48°31' W 122°37'0 0.0
2018-Jul-16 06:59N 48°31' W 122°37'2 3.7
2018-Jul-16 06:30N 48°32' W 122°34'510.0
2018-Jul-16 06:00N 48°36' W 122°37'611.2
2018-Jul-16 05:30N 48°41' W 122°42'2 0.7
2018-Jul-16 02:34N 48°43' W 122°43'111.5
2018-Jul-16 02:28N 48°42' W 122°42'5 9.9
2018-Jul-16 02:00N 48°38' W 122°38'5 9.5
2018-Jul-16 01:29N 48°34' W 122°35'2 5.2
2018-Jul-16 01:00N 48°31' W 122°37'0 0.0
2018-Jul-16 00:30N 48°31' W 122°37'0 0.0
2018-Jul-16 00:00N 48°31' W 122°37'0 0.0
2018-Jul-15 23:28N 48°31' W 122°37'0 0.0
2018-Jul-15 23:00N 48°31' W 122°37'0 0.0
2018-Jul-15 22:30N 48°31' W 122°37'0 0.1
2018-Jul-15 21:59N 48°31' W 122°37'0 0.1
2018-Jul-15 21:29N 48°31' W 122°37'0 0.1
2018-Jul-15 20:59N 48°31' W 122°37'0 0.0
2018-Jul-15 20:30N 48°31' W 122°37'0 0.0
2018-Jul-15 20:00N 48°31' W 122°37'0 0.0
2018-Jul-15 19:30N 48°31' W 122°37'0 0.1
2018-Jul-15 19:00N 48°31' W 122°37'0 0.1
2018-Jul-15 18:30N 48°31' W 122°37'0 0.0
2018-Jul-15 18:00N 48°31' W 122°37'0 0.0
2018-Jul-15 17:30N 48°31' W 122°37'0 0.0
2018-Jul-15 17:00N 48°31' W 122°37'3 6.4
2018-Jul-15 16:30N 48°34' W 122°35'510.1
2018-Jul-15 16:00N 48°38' W 122°40'5 1.2
2018-Jul-15 11:45N 48°43' W 122°44'2 8.8
2018-Jul-15 11:30N 48°41' W 122°42'4 8.1
2018-Jul-15 11:00N 48°38' W 122°38'5 8.9
2018-Jul-15 10:28N 48°34' W 122°35'3 5.8
2018-Jul-15 10:00N 48°31' W 122°37'0 0.0
2018-Jul-15 09:30N 48°31' W 122°37'0 0.0
2018-Jul-15 09:00N 48°31' W 122°37'0 0.0
2018-Jul-15 08:30N 48°31' W 122°37'0 0.0
2018-Jul-15 08:00N 48°31' W 122°37'2 3.3
2018-Jul-15 07:30N 48°31' W 122°35'0 0.0
2018-Jul-15 07:00N 48°31' W 122°35'0 0.0
2018-Jul-15 06:30N 48°31' W 122°35'0 0.7
2018-Jul-15 06:00N 48°31' W 122°35'2 3.1
2018-Jul-15 05:30N 48°32' W 122°34'3 6.0
2018-Jul-15 05:00N 48°35' W 122°35'3 6.9
2018-Jul-15 04:30N 48°38' W 122°38'5 9.8
2018-Jul-15 04:00N 48°41' W 122°44'2 0.6
2018-Jul-15 00:37N 48°43' W 122°44'213.9
2018-Jul-15 00:31N 48°42' W 122°43'611.6
2018-Jul-15 00:00N 48°37' W 122°38'510.5
2018-Jul-14 23:29N 48°32' W 122°34'2 3.5
2018-Jul-14 23:01N 48°31' W 122°35'0 0.2
2018-Jul-14 22:30N 48°31' W 122°35'0 0.0
2018-Jul-14 22:00N 48°31' W 122°35'0 0.1
2018-Jul-14 21:31N 48°31' W 122°35'0 0.3
2018-Jul-14 21:01N 48°31' W 122°35'1 2.9
2018-Jul-14 20:31N 48°31' W 122°37'0 0.0
2018-Jul-14 20:01N 48°31' W 122°37'0 0.0
2018-Jul-14 19:30N 48°31' W 122°37'0 0.0
2018-Jul-14 19:01N 48°31' W 122°37'0 0.0
2018-Jul-14 18:30N 48°31' W 122°37'0 0.0
2018-Jul-14 18:01N 48°31' W 122°37'0 0.0
2018-Jul-14 17:31N 48°31' W 122°37'0 0.0
2018-Jul-14 17:00N 48°31' W 122°37'0 0.0
2018-Jul-14 16:30N 48°31' W 122°37'0 0.0
2018-Jul-14 16:00N 48°31' W 122°37'0 0.0
2018-Jul-14 15:31N 48°31' W 122°37'0 0.0
2018-Jul-14 15:01N 48°31' W 122°37'0 0.0
2018-Jul-14 14:30N 48°31' W 122°37'0 0.0
2018-Jul-14 13:31N 48°31' W 122°37'0 0.0
2018-Jul-14 12:56N 48°31' W 122°37'0 0.0
2018-Jul-14 12:29N 48°31' W 122°37'0 0.0
2018-Jul-14 12:00N 48°31' W 122°37'0 0.0
2018-Jul-14 11:31N 48°31' W 122°37'0 0.0
2018-Jul-14 11:00N 48°31' W 122°37'0 0.0
2018-Jul-14 10:31N 48°31' W 122°37'0 0.0
2018-Jul-14 10:00N 48°31' W 122°37'0 0.0
2018-Jul-14 09:27N 48°31' W 122°37'0 0.1
2018-Jul-14 09:00N 48°31' W 122°37'0 0.1
2018-Jul-14 08:29N 48°31' W 122°37'0 0.1
2018-Jul-14 08:01N 48°31' W 122°37'0 0.1
2018-Jul-14 07:31N 48°31' W 122°37'0 0.0
2018-Jul-14 07:00N 48°31' W 122°37'0 0.0
2018-Jul-14 06:30N 48°31' W 122°37'0 0.0
2018-Jul-14 06:01N 48°31' W 122°37'0 0.0
2018-Jul-14 05:31N 48°31' W 122°37'0 0.0
2018-Jul-14 05:01N 48°31' W 122°37'0 0.0
2018-Jul-14 04:30N 48°31' W 122°37'0 0.0
2018-Jul-14 04:01N 48°31' W 122°37'0 0.0
2018-Jul-14 03:30N 48°31' W 122°37'0 0.0
2018-Jul-14 03:01N 48°31' W 122°37'0 0.0
2018-Jul-14 02:30N 48°31' W 122°37'0 0.0
2018-Jul-14 02:01N 48°31' W 122°37'0 0.0
2018-Jul-14 01:31N 48°31' W 122°37'0 0.0
2018-Jul-14 01:00N 48°31' W 122°37'0 0.0
2018-Jul-14 00:31N 48°31' W 122°37'0 0.0
2018-Jul-14 00:01N 48°31' W 122°37'0 0.0
2018-Jul-13 23:31N 48°31' W 122°37'0 0.0
2018-Jul-13 23:00N 48°31' W 122°37'0 0.0
2018-Jul-13 22:31N 48°31' W 122°37'0 0.1
2018-Jul-13 22:01N 48°31' W 122°37'610.8
2018-Jul-13 21:27N 48°28' W 122°45'8 2.9
2018-Jul-13 18:37N 48°23' W 122°54'214.3
2018-Jul-13 18:30N 48°23' W 122°51'611.9
2018-Jul-13 18:00N 48°28' W 122°45'713.4
2018-Jul-13 17:30N 48°34' W 122°45'613.2
2018-Jul-13 17:00N 48°41' W 122°43'2 0.2
2018-Jul-13 03:31N 48°43' W 122°45'112.1
2018-Jul-13 03:26N 48°42' W 122°44'410.0
2018-Jul-13 02:59N 48°38' W 122°44'510.2
2018-Jul-13 02:31N 48°33' W 122°45'12 3.6
2018-Jul-12 23:06N 48°22' W 122°54'1 8.3
2018-Jul-12 22:56N 48°23' W 122°52'4 8.1
2018-Jul-12 22:26N 48°25' W 122°47'4 8.3
2018-Jul-12 22:00N 48°29' W 122°45'4 8.4
2018-Jul-12 21:30N 48°31' W 122°40'4 7.0
2018-Jul-12 21:00N 48°31' W 122°35'0 0.0
2018-Jul-12 20:30N 48°31' W 122°35'1 1.5
2018-Jul-12 20:01N 48°31' W 122°35'0 0.3
2018-Jul-12 19:31N 48°31' W 122°35'1 1.4
2018-Jul-12 19:01N 48°32' W 122°34'1 1.3
2018-Jul-12 18:31N 48°32' W 122°35'2 3.1
2018-Jul-12 18:01N 48°31' W 122°37'  
Track history (hours):
 
Tides and Currents Weather Stations Pressure Air Temp Water Temp Dewpoint Dewpoint Depression Visibility Wind Speed Wind Dir Waves Ship Positions

Vigilant

Owner: Crowley Marine Services, Seattle, WA. More information available from US FCC via Universal Licensing System and Coast Guard Vessel Documentation Center.

Last reported at 2018-Jul-22 18:00 UTC. Time now 2018-Jul-22 18:22 UTC.
Position N 47°35' W 122°21'.

Length 31 m; draft 5.7 m.

Type: Tug. MMSI: 367328780.

Date/timePositionNaut miles runAvg speedWind from/ knotsBaromVisibWave heightAir tempDewpointWater temp
2018-Jul-22 18:00N 47°35' W 122°21'0 0.0
2018-Jul-22 17:30N 47°35' W 122°21'0 0.0
2018-Jul-22 17:00N 47°35' W 122°21'0 0.0
2018-Jul-22 16:30N 47°35' W 122°21'0 0.0
2018-Jul-22 16:00N 47°35' W 122°21'0 0.0
2018-Jul-22 15:00N 47°35' W 122°21'0 0.0
2018-Jul-22 14:30N 47°35' W 122°21'0 0.0
2018-Jul-22 14:00N 47°35' W 122°21'0 0.0
2018-Jul-22 13:30N 47°35' W 122°21'0 0.0
2018-Jul-22 13:00N 47°35' W 122°21'0 0.0
2018-Jul-22 12:30N 47°35' W 122°21'0 0.0
2018-Jul-22 12:00N 47°35' W 122°21'0 0.0
2018-Jul-22 11:30N 47°35' W 122°21'0 0.0
2018-Jul-22 11:00N 47°35' W 122°21'0 0.0
2018-Jul-22 10:30N 47°35' W 122°21'0 0.0
2018-Jul-22 10:00N 47°35' W 122°21'0 0.0
2018-Jul-22 09:30N 47°35' W 122°21'0 0.0
2018-Jul-22 09:00N 47°35' W 122°21'0 0.0
2018-Jul-22 08:30N 47°35' W 122°21'0 0.0
2018-Jul-22 08:00N 47°35' W 122°21'0 0.0
2018-Jul-22 07:30N 47°35' W 122°21'0 0.0
2018-Jul-22 07:01N 47°35' W 122°21'0 0.0
2018-Jul-22 06:30N 47°35' W 122°21'0 0.0
2018-Jul-22 06:00N 47°35' W 122°21'0 0.0
2018-Jul-22 05:30N 47°35' W 122°21'0 0.0
2018-Jul-22 05:00N 47°35' W 122°21'0 0.0
2018-Jul-22 04:30N 47°35' W 122°21'0 0.0
2018-Jul-22 04:00N 47°35' W 122°21'0 0.0
2018-Jul-22 03:30N 47°35' W 122°21'0 0.0
2018-Jul-22 03:00N 47°35' W 122°21'0 0.0
2018-Jul-22 02:28N 47°35' W 122°21'0 0.5
2018-Jul-22 02:00N 47°35' W 122°21'0 0.3
2018-Jul-22 01:30N 47°35' W 122°21'1 2.5
2018-Jul-22 01:00N 47°36' W 122°22'0 0.8
2018-Jul-22 00:30N 47°37' W 122°22'1 2.5
2018-Jul-22 00:00N 47°36' W 122°21'0 0.5
2018-Jul-21 23:30N 47°35' W 122°21'0 0.0
2018-Jul-21 23:00N 47°35' W 122°21'0 0.0
2018-Jul-21 22:31N 47°35' W 122°21'0 0.0
2018-Jul-21 22:00N 47°35' W 122°21'0 0.0
2018-Jul-21 21:30N 47°35' W 122°21'0 0.0
2018-Jul-21 20:55N 47°35' W 122°21'0 0.0
2018-Jul-21 20:28N 47°35' W 122°21'0 0.0
2018-Jul-21 20:00N 47°35' W 122°21'0 0.1
2018-Jul-21 19:30N 47°35' W 122°21'5 9.6
2018-Jul-21 19:00N 47°38' W 122°27'5 9.2
2018-Jul-21 18:30N 47°43' W 122°28'5 9.9
2018-Jul-21 18:00N 47°48' W 122°27'510.2
2018-Jul-21 17:30N 47°53' W 122°29'34 8.0
2018-Jul-21 13:16N 48°23' W 122°54'414.2
2018-Jul-21 12:59N 48°24' W 122°48'713.8
2018-Jul-21 12:28N 48°31' W 122°43'510.5
2018-Jul-21 12:00N 48°31' W 122°36'1 2.5
2018-Jul-21 11:30N 48°31' W 122°34'0 0.3
2018-Jul-21 11:00N 48°31' W 122°34'1 1.3
2018-Jul-21 10:30N 48°31' W 122°35'1 2.4
2018-Jul-21 10:00N 48°31' W 122°37'0 0.0
2018-Jul-21 09:29N 48°31' W 122°37'0 0.0
2018-Jul-21 09:00N 48°31' W 122°37'0 0.0
2018-Jul-21 08:30N 48°31' W 122°37'0 0.0
2018-Jul-21 08:00N 48°31' W 122°37'0 0.0
2018-Jul-21 07:29N 48°31' W 122°37'0 0.0
2018-Jul-21 07:00N 48°31' W 122°37'0 0.0
2018-Jul-21 06:30N 48°31' W 122°37'0 0.0
2018-Jul-21 06:00N 48°31' W 122°37'0 0.0
2018-Jul-21 05:30N 48°31' W 122°37'0 0.0
2018-Jul-21 05:00N 48°31' W 122°37'0 0.0
2018-Jul-21 04:28N 48°31' W 122°37'0 0.0
2018-Jul-21 04:00N 48°31' W 122°37'0 0.0
2018-Jul-21 03:28N 48°31' W 122°37'0 0.0
2018-Jul-21 03:00N 48°31' W 122°37'0 0.0
2018-Jul-21 02:30N 48°31' W 122°37'0 0.0
2018-Jul-21 02:00N 48°31' W 122°37'0 0.0
2018-Jul-21 01:30N 48°31' W 122°37'0 0.0
2018-Jul-21 01:00N 48°31' W 122°37'0 0.0
2018-Jul-21 00:30N 48°31' W 122°37'1 2.0
2018-Jul-21 00:00N 48°31' W 122°38'15 1.3
2018-Jul-20 12:41N 48°22' W 122°56'2 7.8
2018-Jul-20 12:28N 48°23' W 122°53'4 8.5
2018-Jul-20 11:59N 48°25' W 122°48'611.1
2018-Jul-20 11:28N 48°30' W 122°44'510.5
2018-Jul-20 11:00N 48°31' W 122°37'0 0.0
2018-Jul-20 10:29N 48°31' W 122°37'0 0.0
2018-Jul-20 10:00N 48°31' W 122°37'0 0.0
2018-Jul-20 09:30N 48°31' W 122°37'0 0.0
2018-Jul-20 09:00N 48°31' W 122°37'0 0.0
2018-Jul-20 08:30N 48°31' W 122°37'0 0.0
2018-Jul-20 08:00N 48°31' W 122°37'0 0.0
2018-Jul-20 07:30N 48°31' W 122°37'2 3.1
2018-Jul-20 07:00N 48°31' W 122°35'0 0.3
2018-Jul-20 06:29N 48°31' W 122°35'1 2.9
2018-Jul-20 06:00N 48°31' W 122°37'0 0.0
2018-Jul-20 05:30N 48°31' W 122°37'0 0.0
2018-Jul-20 05:00N 48°31' W 122°37'1 2.3
2018-Jul-20 04:30N 48°32' W 122°35'1 2.4
2018-Jul-20 04:00N 48°31' W 122°34'0 0.1
2018-Jul-20 03:30N 48°31' W 122°34'0 0.1
2018-Jul-20 03:00N 48°31' W 122°34'1 1.4
2018-Jul-20 02:30N 48°31' W 122°34'3 5.3
2018-Jul-20 01:55N 48°34' W 122°35'1 1.6
2018-Jul-20 01:28N 48°34' W 122°35'2 4.6
2018-Jul-20 01:00N 48°32' W 122°35'1 2.4
2018-Jul-20 00:30N 48°31' W 122°37'0 0.0
2018-Jul-20 00:00N 48°31' W 122°37'0 0.0
2018-Jul-19 23:30N 48°31' W 122°37'0 0.0
2018-Jul-19 23:00N 48°31' W 122°37'0 0.0
2018-Jul-19 22:30N 48°31' W 122°37'0 0.0
2018-Jul-19 22:00N 48°31' W 122°37'0 0.0
2018-Jul-19 21:30N 48°31' W 122°37'0 0.0
2018-Jul-19 21:00N 48°31' W 122°37'0 0.0
2018-Jul-19 20:30N 48°31' W 122°37'0 0.0
2018-Jul-19 20:00N 48°31' W 122°37'0 0.0
2018-Jul-19 19:30N 48°31' W 122°37'0 0.0
2018-Jul-19 19:00N 48°31' W 122°37'0 0.0
2018-Jul-19 18:30N 48°31' W 122°37'0 0.0
2018-Jul-19 18:00N 48°31' W 122°37'0 0.0
2018-Jul-19 17:30N 48°31' W 122°37'0 0.0
2018-Jul-19 17:00N 48°31' W 122°37'0 0.0
2018-Jul-19 16:30N 48°31' W 122°37'0 0.0
2018-Jul-19 16:00N 48°31' W 122°37'0 0.0
2018-Jul-19 15:30N 48°31' W 122°37'0 0.0
2018-Jul-19 15:00N 48°31' W 122°37'0 0.0
2018-Jul-19 14:00N 48°31' W 122°37'0 0.0
2018-Jul-19 13:30N 48°31' W 122°37'0 0.0
2018-Jul-19 13:00N 48°31' W 122°37'0 0.0
2018-Jul-19 12:30N 48°31' W 122°37'0 0.0
2018-Jul-19 12:00N 48°31' W 122°37'0 0.0
2018-Jul-19 11:30N 48°31' W 122°37'0 0.0
2018-Jul-19 11:00N 48°31' W 122°37'0 0.0
2018-Jul-19 10:30N 48°31' W 122°37'0 0.0
2018-Jul-19 10:00N 48°31' W 122°37'0 0.0
2018-Jul-19 09:30N 48°31' W 122°37'0 0.0
2018-Jul-19 09:00N 48°31' W 122°37'0 0.0
2018-Jul-19 08:30N 48°31' W 122°37'0 0.0
2018-Jul-19 08:00N 48°31' W 122°37'0 0.0
2018-Jul-19 07:30N 48°31' W 122°37'0 0.0
2018-Jul-19 07:00N 48°31' W 122°37'0 0.0
2018-Jul-19 06:30N 48°31' W 122°37'0 0.0
2018-Jul-19 06:00N 48°31' W 122°37'0 0.0
2018-Jul-19 05:30N 48°31' W 122°37'0 0.0
2018-Jul-19 05:00N 48°31' W 122°37'0 0.0
2018-Jul-19 04:30N 48°31' W 122°37'0 0.0
2018-Jul-19 04:00N 48°31' W 122°37'0 0.1
2018-Jul-19 03:30N 48°31' W 122°37'25 8.5
2018-Jul-19 00:34N 48°23' W 123°13'1 8.7
2018-Jul-19 00:30N 48°24' W 123°12'4 8.6
2018-Jul-19 00:00N 48°28' W 123°12'712.8
2018-Jul-18 23:27N 48°35' W 123°14'612.3
2018-Jul-18 23:00N 48°40' W 123°15'21 0.6
2018-Jul-17 09:09N 48°43' W 122°43'1 8.0
2018-Jul-17 09:00N 48°42' W 122°43'4 7.3
2018-Jul-17 08:30N 48°38' W 122°44'3 6.8
2018-Jul-17 08:00N 48°35' W 122°45'4 7.2
2018-Jul-17 07:30N 48°31' W 122°45'14 4.6
2018-Jul-17 04:26N 48°20' W 122°58'511.6
2018-Jul-17 04:00N 48°23' W 122°52'5 8.5
2018-Jul-17 03:26N 48°26' W 122°46'3 8.0
2018-Jul-17 03:00N 48°29' W 122°45'4 7.0
2018-Jul-17 02:30N 48°33' W 122°45'3 5.6
2018-Jul-17 02:00N 48°36' W 122°45'3 6.6
2018-Jul-17 01:30N 48°39' W 122°44'3 1.0
2018-Jul-16 22:04N 48°42' W 122°43'110.6
2018-Jul-16 22:00N 48°42' W 122°42'5 9.5
2018-Jul-16 21:30N 48°38' W 122°38'5 9.8
2018-Jul-16 20:59N 48°33' W 122°34'3 5.4
2018-Jul-16 20:30N 48°31' W 122°37'0 0.0
2018-Jul-16 20:00N 48°31' W 122°37'0 0.0
2018-Jul-16 19:30N 48°31' W 122°37'0 0.0
2018-Jul-16 19:00N 48°31' W 122°37'0 0.0
2018-Jul-16 18:30N 48°31' W 122°37'0 0.0
2018-Jul-16 18:00N 48°31' W 122°37'0 0.0
2018-Jul-16 17:30N 48°31' W 122°37'0 0.0
2018-Jul-16 17:00N 48°31' W 122°37'0 0.0
2018-Jul-16 16:30N 48°31' W 122°37'0 0.0
2018-Jul-16 16:00N 48°31' W 122°37'0 0.0
2018-Jul-16 15:30N 48°31' W 122°37'0 0.0
2018-Jul-16 15:00N 48°31' W 122°37'0 0.0
2018-Jul-16 14:30N 48°31' W 122°37'0 0.0
2018-Jul-16 13:59N 48°31' W 122°37'0 0.0
2018-Jul-16 13:30N 48°31' W 122°37'0 0.1
2018-Jul-16 13:00N 48°31' W 122°37'0 0.0
2018-Jul-16 12:30N 48°31' W 122°37'0 0.1
2018-Jul-16 12:00N 48°31' W 122°37'0 0.0
2018-Jul-16 11:30N 48°31' W 122°37'1 2.1
2018-Jul-16 11:00N 48°31' W 122°38'3 5.2
2018-Jul-16 10:31N 48°31' W 122°35'0 0.3
2018-Jul-16 10:00N 48°31' W 122°35'0 0.5
2018-Jul-16 09:30N 48°31' W 122°35'1 2.8
2018-Jul-16 09:00N 48°31' W 122°37'0 0.0
2018-Jul-16 08:30N 48°31' W 122°37'0 0.0
2018-Jul-16 08:00N 48°31' W 122°37'0 0.0
2018-Jul-16 07:30N 48°31' W 122°37'0 0.0
2018-Jul-16 06:59N 48°31' W 122°37'2 3.7
2018-Jul-16 06:30N 48°32' W 122°34'510.0
2018-Jul-16 06:00N 48°36' W 122°37'611.2
2018-Jul-16 05:30N 48°41' W 122°42'2 0.7
2018-Jul-16 02:34N 48°43' W 122°43'111.5
2018-Jul-16 02:28N 48°42' W 122°42'5 9.9
2018-Jul-16 02:00N 48°38' W 122°38'5 9.5
2018-Jul-16 01:29N 48°34' W 122°35'2 5.2
2018-Jul-16 01:00N 48°31' W 122°37'0 0.0
2018-Jul-16 00:30N 48°31' W 122°37'0 0.0
2018-Jul-16 00:00N 48°31' W 122°37'0 0.0
2018-Jul-15 23:28N 48°31' W 122°37'0 0.0
2018-Jul-15 23:00N 48°31' W 122°37'0 0.0
2018-Jul-15 22:30N 48°31' W 122°37'0 0.1
2018-Jul-15 21:59N 48°31' W 122°37'0 0.1
2018-Jul-15 21:29N 48°31' W 122°37'0 0.1
2018-Jul-15 20:59N 48°31' W 122°37'0 0.0
2018-Jul-15 20:30N 48°31' W 122°37'0 0.0
2018-Jul-15 20:00N 48°31' W 122°37'0 0.0
2018-Jul-15 19:30N 48°31' W 122°37'0 0.1
2018-Jul-15 19:00N 48°31' W 122°37'0 0.1
2018-Jul-15 18:30N 48°31' W 122°37'0 0.0
2018-Jul-15 18:00N 48°31' W 122°37'0 0.0
2018-Jul-15 17:30N 48°31' W 122°37'0 0.0
2018-Jul-15 17:00N 48°31' W 122°37'3 6.4
2018-Jul-15 16:30N 48°34' W 122°35'510.1
2018-Jul-15 16:00N 48°38' W 122°40'5 1.2
2018-Jul-15 11:45N 48°43' W 122°44'2 8.8
2018-Jul-15 11:30N 48°41' W 122°42'4 8.1
2018-Jul-15 11:00N 48°38' W 122°38'5 8.9
2018-Jul-15 10:28N 48°34' W 122°35'3 5.8
2018-Jul-15 10:00N 48°31' W 122°37'0 0.0
2018-Jul-15 09:30N 48°31' W 122°37'0 0.0
2018-Jul-15 09:00N 48°31' W 122°37'0 0.0
2018-Jul-15 08:30N 48°31' W 122°37'0 0.0
2018-Jul-15 08:00N 48°31' W 122°37'2 3.3
2018-Jul-15 07:30N 48°31' W 122°35'0 0.0
2018-Jul-15 07:00N 48°31' W 122°35'0 0.0
2018-Jul-15 06:30N 48°31' W 122°35'0 0.7
2018-Jul-15 06:00N 48°31' W 122°35'2 3.1
2018-Jul-15 05:30N 48°32' W 122°34'3 6.0
2018-Jul-15 05:00N 48°35' W 122°35'3 6.9
2018-Jul-15 04:30N 48°38' W 122°38'5 9.8
2018-Jul-15 04:00N 48°41' W 122°44'2 0.6
2018-Jul-15 00:37N 48°43' W 122°44'213.9
2018-Jul-15 00:31N 48°42' W 122°43'611.6
2018-Jul-15 00:00N 48°37' W 122°38'510.5
2018-Jul-14 23:29N 48°32' W 122°34'2 3.5
2018-Jul-14 23:01N 48°31' W 122°35'0 0.2
2018-Jul-14 22:30N 48°31' W 122°35'0 0.0
2018-Jul-14 22:00N 48°31' W 122°35'0 0.1
2018-Jul-14 21:31N 48°31' W 122°35'0 0.3
2018-Jul-14 21:01N 48°31' W 122°35'1 2.9
2018-Jul-14 20:31N 48°31' W 122°37'0 0.0
2018-Jul-14 20:01N 48°31' W 122°37'0 0.0
2018-Jul-14 19:30N 48°31' W 122°37'0 0.0
2018-Jul-14 19:01N 48°31' W 122°37'0 0.0
2018-Jul-14 18:30N 48°31' W 122°37'0 0.0
2018-Jul-14 18:01N 48°31' W 122°37'0 0.0
2018-Jul-14 17:31N 48°31' W 122°37'0 0.0
2018-Jul-14 17:00N 48°31' W 122°37'0 0.0
2018-Jul-14 16:30N 48°31' W 122°37'0 0.0
2018-Jul-14 16:00N 48°31' W 122°37'0 0.0
2018-Jul-14 15:31N 48°31' W 122°37'0 0.0
2018-Jul-14 15:01N 48°31' W 122°37'0 0.0
2018-Jul-14 14:30N 48°31' W 122°37'0 0.0
2018-Jul-14 13:31N 48°31' W 122°37'0 0.0
2018-Jul-14 12:56N 48°31' W 122°37'0 0.0
2018-Jul-14 12:29N 48°31' W 122°37'0 0.0
2018-Jul-14 12:00N 48°31' W 122°37'0 0.0
2018-Jul-14 11:31N 48°31' W 122°37'0 0.0
2018-Jul-14 11:00N 48°31' W 122°37'0 0.0
2018-Jul-14 10:31N 48°31' W 122°37'0 0.0
2018-Jul-14 10:00N 48°31' W 122°37'0 0.0
2018-Jul-14 09:27N 48°31' W 122°37'0 0.1
2018-Jul-14 09:00N 48°31' W 122°37'0 0.1
2018-Jul-14 08:29N 48°31' W 122°37'0 0.1
2018-Jul-14 08:01N 48°31' W 122°37'0 0.1
2018-Jul-14 07:31N 48°31' W 122°37'0 0.0
2018-Jul-14 07:00N 48°31' W 122°37'0 0.0
2018-Jul-14 06:30N 48°31' W 122°37'0 0.0
2018-Jul-14 06:01N 48°31' W 122°37'0 0.0
2018-Jul-14 05:31N 48°31' W 122°37'0 0.0
2018-Jul-14 05:01N 48°31' W 122°37'0 0.0
2018-Jul-14 04:30N 48°31' W 122°37'0 0.0
2018-Jul-14 04:01N 48°31' W 122°37'0 0.0
2018-Jul-14 03:30N 48°31' W 122°37'0 0.0
2018-Jul-14 03:01N 48°31' W 122°37'0 0.0
2018-Jul-14 02:30N 48°31' W 122°37'0 0.0
2018-Jul-14 02:01N 48°31' W 122°37'0 0.0
2018-Jul-14 01:31N 48°31' W 122°37'0 0.0
2018-Jul-14 01:00N 48°31' W 122°37'0 0.0
2018-Jul-14 00:31N 48°31' W 122°37'0 0.0
2018-Jul-14 00:01N 48°31' W 122°37'0 0.0
2018-Jul-13 23:31N 48°31' W 122°37'0 0.0
2018-Jul-13 23:00N 48°31' W 122°37'0 0.0
2018-Jul-13 22:31N 48°31' W 122°37'0 0.1
2018-Jul-13 22:01N 48°31' W 122°37'610.8
2018-Jul-13 21:27N 48°28' W 122°45'8 2.9
2018-Jul-13 18:37N 48°23' W 122°54'214.3
2018-Jul-13 18:30N 48°23' W 122°51'611.9
2018-Jul-13 18:00N 48°28' W 122°45'713.4
2018-Jul-13 17:30N 48°34' W 122°45'613.2
2018-Jul-13 17:00N 48°41' W 122°43'2 0.2
2018-Jul-13 03:31N 48°43' W 122°45'112.1
2018-Jul-13 03:26N 48°42' W 122°44'410.0
2018-Jul-13 02:59N 48°38' W 122°44'510.2
2018-Jul-13 02:31N 48°33' W 122°45'12 3.6
2018-Jul-12 23:06N 48°22' W 122°54'1 8.3
2018-Jul-12 22:56N 48°23' W 122°52'4 8.1
2018-Jul-12 22:26N 48°25' W 122°47'4 8.3
2018-Jul-12 22:00N 48°29' W 122°45'4 8.4
2018-Jul-12 21:30N 48°31' W 122°40'4 7.0
2018-Jul-12 21:00N 48°31' W 122°35'0 0.0
2018-Jul-12 20:30N 48°31' W 122°35'1 1.5
2018-Jul-12 20:01N 48°31' W 122°35'0 0.3
2018-Jul-12 19:31N 48°31' W 122°35'1 1.4
2018-Jul-12 19:01N 48°32' W 122°34'1 1.3
2018-Jul-12 18:31N 48°32' W 122°35'2 3.1
2018-Jul-12 18:01N 48°31' W 122°37'  

Dump ship's entire track history